createdAt,value
2022-12-11T00:00:27.425Z,-1.90
2022-12-11T00:02:56.580Z,-2.00
2022-12-11T00:05:24.509Z,-1.90
2022-12-11T00:07:52.210Z,-2.00
2022-12-11T00:10:20.681Z,-2.00
2022-12-11T00:12:48.370Z,-1.90
2022-12-11T00:15:16.118Z,-1.90
2022-12-11T00:17:45.222Z,-1.90
2022-12-11T00:20:13.074Z,-1.80
2022-12-11T00:22:40.908Z,-1.90
2022-12-11T00:25:09.874Z,-1.80
2022-12-11T00:27:37.733Z,-1.80
2022-12-11T00:30:06.563Z,-1.80
2022-12-11T00:32:37.601Z,-1.80
2022-12-11T00:35:07.716Z,-1.90
2022-12-11T00:37:35.712Z,-1.80
2022-12-11T00:40:03.760Z,-1.80
2022-12-11T00:42:31.472Z,-1.80
2022-12-11T00:44:59.173Z,-1.80
2022-12-11T00:47:26.862Z,-1.80
2022-12-11T00:49:54.563Z,-1.80
2022-12-11T00:52:24.713Z,-1.80
2022-12-11T00:54:52.417Z,-1.90
2022-12-11T00:57:20.100Z,-1.90
2022-12-11T00:59:47.808Z,-2.00
2022-12-11T01:02:15.526Z,-2.00
2022-12-11T01:04:43.237Z,-2.00
2022-12-11T01:07:10.934Z,-1.90
2022-12-11T01:09:57.491Z,-2.00
2022-12-11T01:12:26.714Z,-2.00
2022-12-11T01:14:54.407Z,-2.00
2022-12-11T01:17:22.125Z,-1.90
2022-12-11T01:19:49.832Z,-1.90
2022-12-11T01:22:17.514Z,-2.00
2022-12-11T01:24:46.699Z,-2.00
2022-12-11T01:27:14.822Z,-2.00
2022-12-11T01:29:42.532Z,-2.00
2022-12-11T01:32:10.217Z,-2.00
2022-12-11T01:34:37.989Z,-2.00
2022-12-11T01:37:05.669Z,-2.10
2022-12-11T01:39:33.517Z,-2.10
2022-12-11T01:42:02.833Z,-2.10
2022-12-11T01:45:08.401Z,-2.00
2022-12-11T01:47:36.429Z,-2.00
2022-12-11T01:50:04.974Z,-2.10
2022-12-11T01:52:32.799Z,-2.10
2022-12-11T01:55:01.075Z,-2.10
2022-12-11T01:57:30.625Z,-2.10
2022-12-11T01:59:58.442Z,-2.00
2022-12-11T02:02:30.319Z,-1.90
2022-12-11T02:04:58.196Z,-1.90
2022-12-11T02:07:26.078Z,-1.90
2022-12-11T02:09:53.850Z,-1.90
2022-12-11T02:12:31.513Z,-1.90
2022-12-11T02:15:08.274Z,-1.90
2022-12-11T02:17:41.891Z,-2.00
2022-12-11T02:20:13.919Z,-2.00
2022-12-11T02:23:05.720Z,-2.00
2022-12-11T02:25:40.882Z,-2.00
2022-12-11T02:28:18.828Z,-2.00
2022-12-11T02:30:49.538Z,-2.00
2022-12-11T02:33:19.878Z,-2.00
2022-12-11T02:35:49.411Z,-2.10
2022-12-11T02:38:24.076Z,-2.10
2022-12-11T02:40:54.281Z,-2.10
2022-12-11T02:43:24.500Z,-2.00
2022-12-11T02:45:54.611Z,-2.00
2022-12-11T02:48:25.037Z,-2.00
2022-12-11T02:50:56.659Z,-2.00
2022-12-11T02:53:29.540Z,-1.90
2022-12-11T02:56:03.130Z,-1.90
2022-12-11T02:58:34.164Z,-1.90
2022-12-11T03:01:02.121Z,-1.90
2022-12-11T03:03:31.355Z,-1.90
2022-12-11T03:05:59.147Z,-2.00
2022-12-11T03:08:27.136Z,-2.00
2022-12-11T03:10:54.841Z,-2.00
2022-12-11T03:13:23.997Z,-2.00
2022-12-11T03:16:05.223Z,-2.00
2022-12-11T03:18:37.659Z,-2.00
2022-12-11T03:21:09.368Z,-2.00
2022-12-11T03:23:43.715Z,-2.10
2022-12-11T03:26:14.208Z,-2.20
2022-12-11T03:28:46.411Z,-2.10
2022-12-11T03:31:21.323Z,-2.20
2022-12-11T03:33:50.989Z,-2.10
2022-12-11T03:36:23.222Z,-2.10
2022-12-11T03:38:54.126Z,-2.10
2022-12-11T03:41:26.881Z,-2.00
2022-12-11T03:43:58.382Z,-2.00
2022-12-11T03:46:31.376Z,-2.00
2022-12-11T03:49:04.193Z,-2.00
2022-12-11T03:51:34.234Z,-2.00
2022-12-11T03:54:02.525Z,-2.00
2022-12-11T03:56:32.382Z,-2.00
2022-12-11T03:59:00.203Z,-2.10
2022-12-11T04:01:29.288Z,-2.10
2022-12-11T04:03:57.150Z,-2.10
2022-12-11T04:06:24.892Z,-2.10
2022-12-11T04:08:52.586Z,-2.10
2022-12-11T04:11:35.521Z,-2.00
2022-12-11T04:14:21.434Z,-2.00
2022-12-11T04:16:50.647Z,-2.10
2022-12-11T04:19:37.368Z,-2.00
2022-12-11T04:22:23.346Z,-2.00
2022-12-11T04:24:51.746Z,-2.00
2022-12-11T04:27:34.346Z,-2.00
2022-12-11T04:30:02.078Z,-2.00
2022-12-11T04:32:31.102Z,-2.00
2022-12-11T04:34:58.878Z,-2.00
2022-12-11T04:37:28.008Z,-2.10
2022-12-11T04:39:55.864Z,-2.10
2022-12-11T04:42:23.524Z,-2.10
2022-12-11T04:44:51.257Z,-2.10
2022-12-11T04:47:18.921Z,-2.10
2022-12-11T04:49:48.206Z,-2.10
2022-12-11T04:52:16.053Z,-2.10
2022-12-11T04:54:43.889Z,-2.10
2022-12-11T04:57:11.638Z,-2.10
2022-12-11T04:59:39.566Z,-2.10
2022-12-11T05:02:07.576Z,-2.10
2022-12-11T05:04:36.242Z,-2.10
2022-12-11T05:07:05.319Z,-2.10
2022-12-11T05:09:33.273Z,-2.10
2022-12-11T05:12:01.133Z,-2.10
2022-12-11T05:14:31.886Z,-2.20
2022-12-11T05:17:00.198Z,-2.10
2022-12-11T05:19:28.430Z,-2.20
2022-12-11T05:21:56.147Z,-2.20
2022-12-11T05:24:25.150Z,-2.10
2022-12-11T05:26:52.852Z,-2.10
2022-12-11T05:29:20.552Z,-2.10
2022-12-11T05:31:48.316Z,-2.10
2022-12-11T05:34:16.168Z,-2.00
2022-12-11T05:36:43.936Z,-2.10
2022-12-11T05:39:13.306Z,-2.00
2022-12-11T05:41:42.330Z,-2.00
2022-12-11T05:44:12.600Z,-2.00
2022-12-11T05:46:40.687Z,-2.00
2022-12-11T05:49:08.833Z,-2.00
2022-12-11T05:51:36.553Z,-2.00
2022-12-11T05:54:05.080Z,-2.00
2022-12-11T05:56:34.924Z,-2.00
2022-12-11T05:59:05.245Z,-2.00
2022-12-11T06:01:35.780Z,-2.00
2022-12-11T06:04:04.967Z,-2.00
2022-12-11T06:06:33.770Z,-2.00
2022-12-11T06:09:01.891Z,-2.00
2022-12-11T06:11:31.960Z,-1.90
2022-12-11T06:14:00.024Z,-2.00
2022-12-11T06:16:29.130Z,-2.00
2022-12-11T06:18:58.380Z,-2.00
2022-12-11T06:21:28.375Z,-2.10
2022-12-11T06:23:58.103Z,-2.00
2022-12-11T06:26:26.436Z,-2.00
2022-12-11T06:28:54.714Z,-2.00
2022-12-11T06:31:22.700Z,-2.00
2022-12-11T06:33:51.750Z,-2.00
2022-12-11T06:36:22.365Z,-2.00
2022-12-11T06:38:50.446Z,-2.00
2022-12-11T06:41:18.653Z,-2.00
2022-12-11T06:43:46.424Z,-2.00
2022-12-11T06:46:15.691Z,-2.00
2022-12-11T06:48:44.013Z,-2.00
2022-12-11T06:51:14.893Z,-2.10
2022-12-11T06:53:43.083Z,-2.10
2022-12-11T06:56:12.664Z,-2.10
2022-12-11T06:58:41.253Z,-2.10
2022-12-11T07:01:16.471Z,-2.10
2022-12-11T07:03:44.313Z,-2.10
2022-12-11T07:06:13.839Z,-2.10
2022-12-11T07:08:41.860Z,-2.10
2022-12-11T07:11:11.684Z,-2.10
2022-12-11T07:13:39.469Z,-2.10
2022-12-11T07:16:10.846Z,-2.10
2022-12-11T07:18:39.176Z,-2.10
2022-12-11T07:21:07.716Z,-2.10
2022-12-11T07:23:36.824Z,-2.10
2022-12-11T07:26:06.875Z,-2.10
2022-12-11T07:28:34.781Z,-2.10
2022-12-11T07:31:06.159Z,-2.00
2022-12-11T07:33:34.430Z,-1.90
2022-12-11T07:36:04.113Z,-1.90
2022-12-11T07:38:31.829Z,-1.90
2022-12-11T07:41:03.679Z,-1.80
2022-12-11T07:43:31.379Z,-1.90
2022-12-11T07:46:02.104Z,-1.90
2022-12-11T07:48:29.844Z,-1.80
2022-12-11T07:50:57.586Z,-1.80
2022-12-11T07:53:25.462Z,-1.80
2022-12-11T07:55:53.176Z,-1.80
2022-12-11T07:58:22.192Z,-1.80
2022-12-11T08:00:49.933Z,-1.80
2022-12-11T08:03:17.637Z,-1.70
2022-12-11T08:05:48.925Z,-1.80
2022-12-11T08:08:16.702Z,-1.70
2022-12-11T08:10:44.610Z,-1.70
2022-12-11T08:13:12.480Z,-1.70
2022-12-11T08:15:41.718Z,-1.70
2022-12-11T08:18:09.440Z,-1.70
2022-12-11T08:20:39.101Z,-1.60
2022-12-11T08:23:06.817Z,-1.60
2022-12-11T08:25:34.600Z,-1.70
2022-12-11T08:28:02.314Z,-1.70
2022-12-11T08:30:30.088Z,-1.60
2022-12-11T08:32:59.661Z,-1.70
2022-12-11T08:35:27.596Z,-1.60
2022-12-11T08:37:55.290Z,-1.60
2022-12-11T08:40:23.035Z,-1.60
2022-12-11T08:42:51.717Z,-1.70
2022-12-11T08:45:19.481Z,-1.60
2022-12-11T08:47:47.210Z,-1.70
2022-12-11T08:50:16.320Z,-1.60
2022-12-11T08:52:44.019Z,-1.60
2022-12-11T08:55:11.876Z,-1.60
2022-12-11T08:57:40.939Z,-1.50
2022-12-11T09:00:10.278Z,-1.60
2022-12-11T09:02:38.232Z,-1.60
2022-12-11T09:05:07.988Z,-1.60
2022-12-11T09:07:38.632Z,-1.50
2022-12-11T09:10:07.905Z,-1.50
2022-12-11T09:12:35.833Z,-1.50
2022-12-11T09:15:03.948Z,-1.50
2022-12-11T09:17:32.006Z,-1.50
2022-12-11T09:19:59.881Z,-1.50
2022-12-11T09:22:27.631Z,-1.50
2022-12-11T09:24:56.622Z,-1.60
2022-12-11T09:27:24.349Z,-1.70
2022-12-11T09:29:52.270Z,-1.70
2022-12-11T09:32:19.952Z,-1.60
2022-12-11T09:34:50.809Z,-1.60
2022-12-11T09:37:18.659Z,-1.60
2022-12-11T09:39:46.443Z,-1.60
2022-12-11T09:42:22.062Z,-1.60
2022-12-11T09:44:52.696Z,-1.50
2022-12-11T09:47:36.136Z,-1.40
2022-12-11T09:50:11.815Z,-1.40
2022-12-11T09:52:47.927Z,-1.40
2022-12-11T09:55:19.493Z,-1.40
2022-12-11T09:57:59.007Z,-1.30
2022-12-11T10:00:31.296Z,-1.20
2022-12-11T10:03:31.198Z,-1.10
2022-12-11T10:06:05.020Z,-1.00
2022-12-11T10:08:40.055Z,-1.00
2022-12-11T10:11:28.335Z,-1.00
2022-12-11T10:14:06.012Z,-1.00
2022-12-11T10:16:39.982Z,-1.00
2022-12-11T10:19:15.416Z,-0.90
2022-12-11T10:21:44.175Z,-0.90
2022-12-11T10:24:34.887Z,-0.90
2022-12-11T10:27:16.347Z,-1.00
2022-12-11T10:29:45.681Z,-0.90
2022-12-11T10:32:23.543Z,-0.90
2022-12-11T10:34:56.963Z,-0.90
2022-12-11T10:37:24.723Z,-1.00
2022-12-11T10:39:52.431Z,-1.00
2022-12-11T10:42:22.956Z,-1.00
2022-12-11T10:45:00.410Z,-1.00
2022-12-11T10:47:28.551Z,-1.00
2022-12-11T10:49:58.740Z,-1.00
2022-12-11T10:52:29.293Z,-1.00
2022-12-11T10:55:01.288Z,-1.00
2022-12-11T10:57:30.952Z,-1.00
2022-12-11T11:00:00.812Z,-1.10
2022-12-11T11:02:31.686Z,-1.10
2022-12-11T11:05:01.459Z,-1.00
2022-12-11T11:07:30.682Z,-1.00
2022-12-11T11:10:07.694Z,-1.10
2022-12-11T11:12:39.971Z,-1.10
2022-12-11T11:15:13.764Z,-1.20
2022-12-11T11:17:54.517Z,-1.20
2022-12-11T11:20:26.450Z,-1.20
2022-12-11T11:22:57.767Z,-1.30
2022-12-11T11:25:27.009Z,-1.20
2022-12-11T11:27:58.585Z,-1.30
2022-12-11T11:30:30.410Z,-1.30
2022-12-11T11:33:00.801Z,-1.20
2022-12-11T11:35:30.236Z,-1.20
2022-12-11T11:38:11.159Z,-1.20
2022-12-11T11:40:43.242Z,-1.30
2022-12-11T11:43:20.107Z,-1.20
2022-12-11T11:45:56.005Z,-1.30
2022-12-11T11:48:31.722Z,-1.20
2022-12-11T11:51:09.679Z,-1.10
2022-12-11T11:53:41.722Z,-1.10
2022-12-11T11:56:21.230Z,-1.10
2022-12-11T11:58:59.236Z,-1.00
2022-12-11T12:01:28.727Z,-1.00
2022-12-11T12:03:57.311Z,-1.00
2022-12-11T12:06:47.472Z,-1.00
2022-12-11T12:09:31.725Z,-1.00
2022-12-11T12:12:10.399Z,-1.00
2022-12-11T12:14:53.448Z,-1.10
2022-12-11T12:17:32.524Z,-1.10
2022-12-11T12:20:09.220Z,-1.10
2022-12-11T12:22:55.105Z,-1.10
2022-12-11T12:25:28.032Z,-1.10
2022-12-11T12:28:03.352Z,-1.20
2022-12-11T12:30:40.954Z,-1.20
2022-12-11T12:33:23.572Z,-1.20
2022-12-11T12:36:04.953Z,-1.20
2022-12-11T12:38:43.527Z,-1.20
2022-12-11T12:41:19.657Z,-1.30
2022-12-11T12:44:09.188Z,-1.20
2022-12-11T12:46:54.666Z,-1.20
2022-12-11T12:49:33.891Z,-1.20
2022-12-11T12:52:02.686Z,-1.20
2022-12-11T12:54:33.319Z,-1.10
2022-12-11T12:57:03.674Z,-1.10
2022-12-11T12:59:31.420Z,-1.10
2022-12-11T13:02:02.779Z,-1.10
2022-12-11T13:07:29.920Z,-1.20
2022-12-11T13:10:08.091Z,-1.10
2022-12-11T13:12:43.566Z,-1.10
2022-12-11T13:15:37.083Z,-1.10
2022-12-11T13:18:27.784Z,-1.10
2022-12-11T13:20:56.915Z,-1.20
2022-12-11T13:23:29.739Z,-1.30
2022-12-11T13:25:59.664Z,-1.30
2022-12-11T13:28:31.502Z,-1.30
2022-12-11T13:31:02.437Z,-1.20
2022-12-11T13:33:30.964Z,-1.30
2022-12-11T13:36:25.061Z,-1.30
2022-12-11T13:38:56.385Z,-1.30
2022-12-11T13:41:24.654Z,-1.40
2022-12-11T13:43:54.638Z,-1.40
2022-12-11T13:46:26.278Z,-1.30
2022-12-11T13:48:57.246Z,-1.40
2022-12-11T13:51:28.122Z,-1.30
2022-12-11T13:54:17.353Z,-1.30
2022-12-11T13:56:56.400Z,-1.30
2022-12-11T13:59:27.843Z,-1.30
2022-12-11T14:01:58.683Z,-1.40
2022-12-11T14:04:28.140Z,-1.40
2022-12-11T14:06:58.515Z,-1.50
2022-12-11T14:09:28.436Z,-1.50
2022-12-11T14:11:59.082Z,-1.50
2022-12-11T14:14:36.050Z,-1.60
2022-12-11T14:17:04.202Z,-1.60
2022-12-11T14:19:32.179Z,-1.60
2022-12-11T14:22:03.097Z,-1.70
2022-12-11T14:24:32.102Z,-1.60
2022-12-11T14:27:00.453Z,-1.70
2022-12-11T14:29:31.081Z,-1.70
2022-12-11T14:32:03.157Z,-1.70
2022-12-11T14:34:35.010Z,-1.70
2022-12-11T14:37:07.883Z,-1.70
2022-12-11T14:39:39.943Z,-1.70
2022-12-11T14:42:13.122Z,-1.80
2022-12-11T14:44:48.887Z,-1.80
2022-12-11T14:47:19.744Z,-1.80
2022-12-11T14:49:51.821Z,-1.80
2022-12-11T14:52:24.946Z,-1.80
2022-12-11T14:54:57.538Z,-1.90
2022-12-11T14:57:29.819Z,-1.90
2022-12-11T14:59:58.589Z,-1.90
2022-12-11T15:02:30.718Z,-1.90
2022-12-11T15:05:08.743Z,-1.90
2022-12-11T15:07:37.980Z,-1.90
2022-12-11T15:10:07.126Z,-2.00
2022-12-11T15:12:35.077Z,-1.90
2022-12-11T15:15:07.429Z,-1.90
2022-12-11T15:17:37.445Z,-2.00
2022-12-11T15:20:09.230Z,-1.90
2022-12-11T15:22:39.034Z,-2.00
2022-12-11T15:25:07.975Z,-2.00
2022-12-11T15:27:37.950Z,-2.00
2022-12-11T15:30:28.215Z,-2.10
2022-12-11T15:33:22.145Z,-2.10
2022-12-11T15:35:59.274Z,-2.10
2022-12-11T15:38:34.430Z,-2.00
2022-12-11T15:41:03.692Z,-2.00
2022-12-11T15:43:35.410Z,-2.00
2022-12-11T15:46:03.466Z,-2.00
2022-12-11T15:48:31.405Z,-2.00
2022-12-11T15:50:59.200Z,-2.00
2022-12-11T15:53:26.947Z,-2.00
2022-12-11T15:55:56.269Z,-2.00
2022-12-11T15:58:25.810Z,-2.00
2022-12-11T16:00:54.334Z,-2.00
2022-12-11T16:03:23.661Z,-2.00
2022-12-11T16:05:53.058Z,-2.10
2022-12-11T16:08:23.379Z,-2.10
2022-12-11T16:10:54.087Z,-2.10
2022-12-11T16:13:23.474Z,-2.00
2022-12-11T16:15:53.720Z,-2.00
2022-12-11T16:18:23.488Z,-2.00
2022-12-11T16:20:52.194Z,-2.00
2022-12-11T16:23:20.267Z,-2.00
2022-12-11T16:25:48.454Z,-2.00
2022-12-11T16:28:18.113Z,-2.00
2022-12-11T16:30:47.248Z,-2.00
2022-12-11T16:33:15.026Z,-2.10
2022-12-11T16:35:43.712Z,-2.10
2022-12-11T16:38:12.079Z,-2.10
2022-12-11T16:40:41.401Z,-2.10
2022-12-11T16:43:09.372Z,-2.10
2022-12-11T16:45:37.165Z,-2.10
2022-12-11T16:48:06.709Z,-2.10
2022-12-11T16:50:36.110Z,-2.20
2022-12-11T16:53:03.893Z,-2.10
2022-12-11T16:55:31.673Z,-2.10
2022-12-11T16:57:59.412Z,-2.00
2022-12-11T17:00:27.196Z,-1.90
2022-12-11T17:02:54.980Z,-1.90
2022-12-11T17:05:24.909Z,-1.90
2022-12-11T17:07:52.722Z,-1.80
2022-12-11T17:10:20.701Z,-1.80
2022-12-11T17:12:48.763Z,-1.80
2022-12-11T17:15:16.844Z,-1.80
2022-12-11T17:17:44.549Z,-1.80
2022-12-11T17:20:12.753Z,-1.80
2022-12-11T17:22:41.975Z,-1.70
2022-12-11T17:25:10.225Z,-1.70
2022-12-11T17:27:38.309Z,-1.70
2022-12-11T17:30:06.990Z,-1.60
2022-12-11T17:32:34.685Z,-1.60
2022-12-11T17:35:02.435Z,-1.70
2022-12-11T17:37:30.651Z,-1.60
2022-12-11T17:39:59.783Z,-1.70
2022-12-11T17:42:27.482Z,-1.60
2022-12-11T17:44:55.270Z,-1.60
2022-12-11T17:47:23.014Z,-1.60
2022-12-11T17:49:50.797Z,-1.60
2022-12-11T17:52:18.947Z,-1.60
2022-12-11T17:54:47.225Z,-1.70
2022-12-11T17:57:16.268Z,-1.70
2022-12-11T17:59:44.009Z,-1.70
2022-12-11T18:02:11.776Z,-1.70
2022-12-11T18:04:39.622Z,-1.70
2022-12-11T18:07:07.625Z,-1.70
2022-12-11T18:09:35.515Z,-1.70
2022-12-11T18:12:03.257Z,-1.70
2022-12-11T18:14:32.455Z,-1.70
2022-12-11T18:17:00.237Z,-1.80
2022-12-11T18:19:28.082Z,-1.80
2022-12-11T18:21:56.329Z,-1.80
2022-12-11T18:24:25.793Z,-1.90
2022-12-11T18:26:53.614Z,-1.90
2022-12-11T18:29:21.333Z,-1.70
2022-12-11T18:31:50.468Z,-1.90
2022-12-11T18:34:18.238Z,-1.90
2022-12-11T18:36:46.003Z,-1.90
2022-12-11T18:39:13.807Z,-1.80
2022-12-11T18:41:41.581Z,-1.80
2022-12-11T18:44:10.080Z,-1.80
2022-12-11T18:46:39.321Z,-1.70
2022-12-11T18:49:08.502Z,-1.70
2022-12-11T18:51:36.229Z,-1.70
2022-12-11T18:54:04.111Z,-1.70
2022-12-11T18:56:31.894Z,-1.70
2022-12-11T18:58:59.669Z,-1.70
2022-12-11T19:01:29.774Z,-1.70
2022-12-11T19:04:03.517Z,-1.70
2022-12-11T19:06:35.591Z,-1.70
2022-12-11T19:09:05.416Z,-1.70
2022-12-11T19:11:35.280Z,-1.70
2022-12-11T19:14:05.212Z,-1.70
2022-12-11T19:16:35.937Z,-1.70
2022-12-11T19:19:07.023Z,-1.70
2022-12-11T19:21:37.591Z,-1.70
2022-12-11T19:24:06.098Z,-1.70
2022-12-11T19:26:34.262Z,-1.70
2022-12-11T19:29:02.520Z,-1.70
2022-12-11T19:31:32.177Z,-1.70
2022-12-11T19:34:00.802Z,-1.60
2022-12-11T19:36:30.938Z,-1.60
2022-12-11T19:39:02.063Z,-1.60
2022-12-11T19:41:31.937Z,-1.60
2022-12-11T19:44:00.462Z,-1.60
2022-12-11T19:46:29.643Z,-1.60
2022-12-11T19:48:58.401Z,-1.60
2022-12-11T19:51:29.285Z,-1.60
2022-12-11T19:53:57.862Z,-1.60
2022-12-11T19:56:27.338Z,-1.60
2022-12-11T19:58:55.048Z,-1.60
2022-12-11T20:01:26.005Z,-1.60
2022-12-11T20:03:54.759Z,-1.60
2022-12-11T20:06:23.661Z,-1.60
2022-12-11T20:08:51.577Z,-1.60
2022-12-11T20:11:19.620Z,-1.60
2022-12-11T20:13:52.141Z,-1.60
2022-12-11T20:16:39.137Z,-1.60
2022-12-11T20:19:08.314Z,-1.50
2022-12-11T20:21:36.044Z,-1.60
2022-12-11T20:24:03.950Z,-1.50
2022-12-11T20:26:32.587Z,-1.50
2022-12-11T20:29:05.068Z,-1.50
2022-12-11T20:31:33.187Z,-1.50
2022-12-11T20:34:00.948Z,-1.50
2022-12-11T20:36:28.684Z,-1.50
2022-12-11T20:38:56.709Z,-1.50
2022-12-11T20:41:26.230Z,-1.60
2022-12-11T20:43:54.918Z,-1.60
2022-12-11T20:46:26.594Z,-1.60
2022-12-11T20:48:58.388Z,-1.60
2022-12-11T20:51:26.854Z,-1.60
2022-12-11T20:53:58.669Z,-1.60
2022-12-11T20:56:29.472Z,-1.60
2022-12-11T20:58:58.275Z,-1.50
2022-12-11T21:01:29.794Z,-1.60
2022-12-11T21:03:57.920Z,-1.60
2022-12-11T21:06:28.398Z,-1.50
2022-12-11T21:08:56.214Z,-1.60
2022-12-11T21:11:24.205Z,-1.60
2022-12-11T21:13:52.249Z,-1.50
2022-12-11T21:16:20.550Z,-1.60
2022-12-11T21:18:49.801Z,-1.60
2022-12-11T21:21:17.747Z,-1.60
2022-12-11T21:23:45.946Z,-1.60
2022-12-11T21:26:14.340Z,-1.60
2022-12-11T21:28:42.394Z,-1.70
2022-12-11T21:31:12.485Z,-1.60
2022-12-11T21:33:40.429Z,-1.60
2022-12-11T21:36:12.434Z,-1.60
2022-12-11T21:38:41.685Z,-1.60
2022-12-11T21:41:10.623Z,-1.60
2022-12-11T21:43:52.557Z,-1.60
2022-12-11T21:46:28.786Z,-1.60
2022-12-11T21:48:56.636Z,-1.60
2022-12-11T21:51:32.569Z,-1.50
2022-12-11T21:54:03.712Z,-1.50
2022-12-11T21:56:32.195Z,-1.50
2022-12-11T21:59:01.304Z,-1.50
2022-12-11T22:01:32.268Z,-1.50
2022-12-11T22:04:00.616Z,-1.50
2022-12-11T22:06:29.667Z,-1.50
2022-12-11T22:08:57.441Z,-1.50
2022-12-11T22:11:28.380Z,-1.50
2022-12-11T22:13:56.659Z,-1.50
2022-12-11T22:16:24.698Z,-1.60
2022-12-11T22:18:52.542Z,-1.60
2022-12-11T22:21:20.709Z,-1.60
2022-12-11T22:23:49.742Z,-1.70
2022-12-11T22:26:20.697Z,-1.70
2022-12-11T22:28:48.498Z,-1.70
2022-12-11T22:31:19.722Z,-1.70
2022-12-11T22:33:49.562Z,-1.70
2022-12-11T22:36:18.821Z,-1.60
2022-12-11T22:38:46.743Z,-1.70
2022-12-11T22:41:22.373Z,-1.70
2022-12-11T22:43:50.360Z,-1.60
2022-12-11T22:46:19.536Z,-1.70
2022-12-11T22:48:47.482Z,-1.70
2022-12-11T22:51:15.249Z,-1.60
2022-12-11T22:53:42.947Z,-1.60
2022-12-11T22:56:12.520Z,-1.60
2022-12-11T22:58:42.878Z,-1.70
2022-12-11T23:01:12.942Z,-1.70
2022-12-11T23:03:40.783Z,-1.60
2022-12-11T23:06:11.142Z,-1.60
2022-12-11T23:08:40.177Z,-1.70
2022-12-11T23:11:12.757Z,-1.70
2022-12-11T23:13:42.068Z,-1.60
2022-12-11T23:16:10.220Z,-1.60
2022-12-11T23:18:38.484Z,-1.70
2022-12-11T23:21:07.533Z,-1.70
2022-12-11T23:23:35.496Z,-1.70
2022-12-11T23:26:04.619Z,-1.70
2022-12-11T23:28:32.395Z,-1.70
2022-12-11T23:31:01.514Z,-1.70
2022-12-11T23:33:29.285Z,-1.70
2022-12-11T23:35:57.033Z,-1.70
2022-12-11T23:38:24.716Z,-1.80
2022-12-11T23:40:53.148Z,-1.80
2022-12-11T23:43:20.894Z,-1.80
2022-12-11T23:45:48.682Z,-1.80
2022-12-11T23:48:18.168Z,-1.80
2022-12-11T23:50:46.478Z,-1.80
2022-12-11T23:53:14.278Z,-1.80
2022-12-11T23:55:42.832Z,-1.80
2022-12-11T23:58:11.784Z,-1.80
